Time;durP1;ratioP1;P1;durP2;ratioP2;P2;SDS_P1;SDS_P2;PMS_P1;PMS_P2;Temp;Humidity;BMP_temperature;BMP_pressure;BME280_temperature;BME280_humidity;BME280_pressure;Samples;Min_cycle;Max_cycle;Signal;HPM_P1;HPM_P2
2023/06/01 00:00:55;;;;;;;10.15;6.45;;;;;;;21.48;47.13;102556.88;5002284;28;20327;-34
2023/06/01 00:03:23;;;;;;;9.75;6.45;;;;;;;21.48;47.20;102556.88;5001211;28;20054;-35
2023/06/01 00:05:49;;;;;;;10.00;6.60;;;;;;;21.46;47.34;102554.28;5007303;28;20054;-34
2023/06/01 00:08:16;;;;;;;10.45;6.63;;;;;;;21.45;47.18;102557.97;5007755;28;20041;-35
2023/06/01 00:10:43;;;;;;;11.13;7.00;;;;;;;21.44;47.49;102561.69;5006363;28;20172;-37
2023/06/01 00:13:09;;;;;;;11.65;6.43;;;;;;;21.44;47.43;102550.88;5006427;28;20707;-34
2023/06/01 00:15:36;;;;;;;9.80;6.28;;;;;;;21.44;47.54;102556.28;5002229;28;20058;-34
2023/06/01 00:18:03;;;;;;;10.27;6.07;;;;;;;21.42;47.16;102558.25;5003004;28;20081;-34
2023/06/01 00:20:31;;;;;;;9.77;6.13;;;;;;;21.41;47.21;102559.25;5004414;28;20089;-34
2023/06/01 00:23:02;;;;;;;10.95;6.13;;;;;;;21.40;47.52;102555.69;5007205;28;20061;-35
2023/06/01 00:25:29;;;;;;;9.82;6.18;;;;;;;21.39;47.44;102548.59;5002698;28;20050;-34
2023/06/01 00:27:56;;;;;;;10.63;6.25;;;;;;;21.38;47.51;102554.09;5006176;28;20430;-35
2023/06/01 00:30:22;;;;;;;9.95;6.20;;;;;;;21.36;47.39;102551.56;5004890;28;20430;-35
2023/06/01 00:32:49;;;;;;;9.77;6.63;;;;;;;21.36;47.23;102561.50;5006019;28;20077;-34
2023/06/01 00:35:16;;;;;;;8.95;5.70;;;;;;;21.35;47.10;102557.09;5004124;28;20341;-34
2023/06/01 00:37:43;;;;;;;10.30;6.07;;;;;;;21.35;47.27;102562.50;5002188;28;20055;-34
2023/06/01 00:40:10;;;;;;;10.95;5.80;;;;;;;21.34;47.29;102558.06;5002973;28;20116;-34
2023/06/01 00:42:37;;;;;;;8.50;5.88;;;;;;;21.33;47.07;102559.91;5006997;28;20042;-34
2023/06/01 00:45:05;;;;;;;9.30;5.60;;;;;;;21.33;47.32;102553.66;4999252;28;20058;-34
2023/06/01 00:47:40;;;;;;;7.18;5.00;;;;;;;21.32;47.44;102560.03;5003850;28;20038;-34
2023/06/01 00:50:08;;;;;;;9.02;5.75;;;;;;;21.32;47.49;102549.22;5002710;28;20404;-35
2023/06/01 00:52:37;;;;;;;8.65;5.57;;;;;;;21.31;47.38;102561.03;5001235;28;20100;-34
2023/06/01 00:55:05;;;;;;;8.40;5.55;;;;;;;21.29;47.47;102553.03;5006590;28;20112;-34
2023/06/01 00:57:34;;;;;;;9.57;5.70;;;;;;;21.28;47.39;102554.03;5004273;28;20057;-35
2023/06/01 01:00:10;;;;;;;8.80;5.70;;;;;;;21.28;47.13;102547.78;5000079;28;20182;-34
2023/06/01 01:02:44;;;;;;;8.70;5.78;;;;;;;21.26;47.57;102552.44;5000914;28;20343;-34
2023/06/01 01:05:11;;;;;;;8.85;5.40;;;;;;;21.27;47.24;102551.50;5000230;28;20058;-35
2023/06/01 01:07:43;;;;;;;8.52;5.78;;;;;;;21.27;47.75;102551.50;5002622;28;20073;-36
2023/06/01 01:10:26;;;;;;;7.70;5.32;;;;;;;21.24;47.20;102555.28;5004874;28;20058;-35
2023/06/01 01:13:06;;;;;;;8.02;4.90;;;;;;;21.24;47.35;102555.28;5006387;28;20429;-35
2023/06/01 01:15:53;;;;;;;7.63;4.95;;;;;;;21.24;47.76;102551.75;5005672;28;20050;-35
2023/06/01 01:18:32;;;;;;;7.43;5.07;;;;;;;21.24;47.34;102549.91;5005035;28;20390;-36
2023/06/01 01:21:03;;;;;;;7.90;4.97;;;;;;;21.25;47.37;102545.34;5004236;28;20085;-35
2023/06/01 01:23:54;;;;;;;9.27;5.22;;;;;;;21.24;47.09;102549.91;5005915;28;20049;-36
2023/06/01 01:26:43;;;;;;;8.60;5.25;;;;;;;21.24;47.39;102549.03;5006829;28;20053;-35
2023/06/01 01:29:13;;;;;;;6.95;4.70;;;;;;;21.22;47.11;102541.06;5009385;28;20062;-35
2023/06/01 01:31:41;;;;;;;8.18;5.25;;;;;;;21.21;47.62;102544.75;5004188;28;20458;-35
2023/06/01 01:34:09;;;;;;;8.70;5.20;;;;;;;21.19;47.19;102542.22;5006464;28;20061;-35
2023/06/01 01:36:36;;;;;;;7.65;4.90;;;;;;;21.19;47.22;102542.22;5005359;28;20329;-35
2023/06/01 01:39:03;;;;;;;7.55;4.88;;;;;;;21.18;47.69;102543.19;5005384;28;20042;-35
2023/06/01 01:41:29;;;;;;;7.47;4.97;;;;;;;21.18;47.11;102545.88;5000096;28;20132;-35
2023/06/01 01:43:59;;;;;;;8.50;5.03;;;;;;;21.17;47.17;102546.88;5002764;28;20082;-35
2023/06/01 01:46:28;;;;;;;7.07;4.78;;;;;;;21.15;47.23;102548.00;5002160;28;20041;-36
2023/06/01 01:49:07;;;;;;;6.95;4.93;;;;;;;21.14;47.40;102549.81;5003546;28;20059;-36
2023/06/01 01:51:44;;;;;;;6.55;4.40;;;;;;;21.14;47.44;102546.28;5001611;28;20054;-35
2023/06/01 01:54:12;;;;;;;6.97;4.32;;;;;;;21.14;47.56;102544.44;5000784;28;20058;-36
2023/06/01 01:56:40;;;;;;;7.75;4.18;;;;;;;21.13;47.36;102548.13;5005788;28;20049;-35
2023/06/01 01:59:07;;;;;;;7.05;4.75;;;;;;;21.13;47.53;102536.47;5006975;28;20078;-36
2023/06/01 02:01:34;;;;;;;7.80;4.90;;;;;;;21.11;47.09;102542.03;5000976;28;20054;-35
2023/06/01 02:04:03;;;;;;;6.90;4.55;;;;;;;21.12;46.99;102543.72;5003514;28;20054;-35
2023/06/01 02:06:30;;;;;;;6.70;4.78;;;;;;;21.11;47.51;102533.94;5000129;28;20133;-35
2023/06/01 02:08:57;;;;;;;7.28;4.93;;;;;;;21.10;47.04;102532.19;5000631;28;20054;-35
2023/06/01 02:11:24;;;;;;;8.77;4.97;;;;;;;21.09;47.02;102535.91;5006122;28;20046;-35
2023/06/01 02:13:51;;;;;;;6.00;4.05;;;;;;;21.11;47.62;102530.38;5002691;28;20050;-35
2023/06/01 02:16:18;;;;;;;6.20;4.47;;;;;;;21.10;47.25;102525.97;5001739;28;20084;-35
2023/06/01 02:18:45;;;;;;;5.70;3.92;;;;;;;21.10;47.59;102531.34;5000537;28;20136;-35
2023/06/01 02:21:13;;;;;;;5.65;3.78;;;;;;;21.08;47.72;102526.09;5001455;28;20515;-35
2023/06/01 02:23:41;;;;;;;8.95;4.35;;;;;;;21.08;47.50;102527.94;4998350;28;20444;-35
2023/06/01 02:26:09;;;;;;;6.32;4.10;;;;;;;21.06;47.28;102522.66;5002462;28;20058;-35
2023/06/01 02:28:40;;;;;;;6.60;4.20;;;;;;;21.07;47.13;102512.78;4997764;28;20057;-35
2023/06/01 02:31:07;;;;;;;7.38;4.35;;;;;;;21.06;47.56;102519.97;4998992;28;20061;-35
2023/06/01 02:33:33;;;;;;;7.03;4.30;;;;;;;21.06;47.27;102524.50;4998378;28;20050;-35
2023/06/01 02:36:01;;;;;;;5.65;3.70;;;;;;;21.05;47.56;102526.38;5003882;28;20104;-35
2023/06/01 02:38:28;;;;;;;5.45;3.75;;;;;;;21.05;47.37;102528.22;5006122;28;20045;-35
2023/06/01 02:40:54;;;;;;;5.57;3.75;;;;;;;21.04;47.88;102529.22;5001866;28;20054;-35
2023/06/01 02:43:21;;;;;;;6.63;4.13;;;;;;;21.03;47.56;102528.34;4998284;28;20100;-35
2023/06/01 02:45:47;;;;;;;6.60;4.03;;;;;;;21.02;47.42;102526.63;5000606;28;20045;-34
2023/06/01 02:48:14;;;;;;;5.60;3.50;;;;;;;21.03;47.80;102524.81;4999171;28;20041;-35
2023/06/01 02:50:41;;;;;;;6.25;4.20;;;;;;;21.01;47.28;102524.06;5007064;28;20393;-36
2023/06/01 02:53:07;;;;;;;5.30;3.35;;;;;;;21.00;47.46;102525.91;5000447;28;20050;-35
2023/06/01 02:55:34;;;;;;;5.90;3.75;;;;;;;21.00;47.18;102525.91;5001972;28;20045;-35
2023/06/01 02:58:01;;;;;;;5.35;3.55;;;;;;;21.00;47.33;102523.22;4999781;28;20066;-35
2023/06/01 03:00:27;;;;;;;5.45;3.30;;;;;;;20.99;47.22;102521.50;5005928;28;20499;-34
2023/06/01 03:02:54;;;;;;;5.90;3.92;;;;;;;20.99;47.21;102518.81;5007020;28;20058;-35
2023/06/01 03:05:21;;;;;;;5.32;3.75;;;;;;;21.00;47.66;102522.38;5005841;28;20050;-35
2023/06/01 03:07:48;;;;;;;5.78;3.40;;;;;;;20.99;47.15;102524.22;5002227;28;20047;-35
2023/06/01 03:10:15;;;;;;;6.05;3.63;;;;;;;20.99;47.15;102510.72;5003506;28;20050;-35
2023/06/01 03:12:41;;;;;;;6.63;3.58;;;;;;;20.98;47.58;102510.84;5002880;28;20046;-35
2023/06/01 03:15:08;;;;;;;5.05;3.47;;;;;;;20.97;47.81;102520.78;5000266;28;20100;-35
2023/06/01 03:17:35;;;;;;;4.57;3.45;;;;;;;20.97;47.69;102514.53;5000810;28;20405;-35
2023/06/01 03:20:02;;;;;;;4.88;3.22;;;;;;;20.97;47.43;102515.38;5005876;28;20057;-35
2023/06/01 03:22:29;;;;;;;6.22;3.80;;;;;;;20.97;47.47;102511.84;5002363;28;20344;-35
2023/06/01 03:24:57;;;;;;;4.75;3.30;;;;;;;20.97;47.71;102519.94;5000948;28;20441;-35
2023/06/01 03:27:24;;;;;;;6.28;3.58;;;;;;;20.95;47.38;102517.38;5000144;28;20054;-35
2023/06/01 03:29:50;;;;;;;5.43;3.38;;;;;;;20.93;47.83;102519.34;5004715;28;20058;-35
2023/06/01 03:32:17;;;;;;;4.38;3.25;;;;;;;20.96;47.51;102521.78;4996419;28;20124;-35
2023/06/01 03:34:44;;;;;;;6.20;3.67;;;;;;;21.03;47.45;102519.41;5005094;28;20053;-35
2023/06/01 03:37:12;;;;;;;4.70;3.30;;;;;;;21.11;47.49;102519.59;5000377;28;20135;-35
2023/06/01 03:39:39;;;;;;;6.53;3.65;;;;;;;21.18;47.47;102527.00;5003521;28;20047;-35
2023/06/01 03:42:07;;;;;;;5.30;3.20;;;;;;;21.26;47.10;102517.38;5000929;28;20060;-35
2023/06/01 03:44:33;;;;;;;6.03;3.78;;;;;;;21.31;47.38;102525.97;5002638;28;20058;-35
2023/06/01 03:47:00;;;;;;;6.13;3.30;;;;;;;21.33;47.03;102522.16;5002848;28;20064;-35
2023/06/01 03:49:27;;;;;;;5.97;3.55;;;;;;;21.37;46.80;102526.28;5001213;28;20088;-35
2023/06/01 03:51:54;;;;;;;4.25;2.95;;;;;;;21.41;46.68;102534.97;4999952;28;20410;-35
2023/06/01 03:54:20;;;;;;;4.75;3.03;;;;;;;21.44;46.43;102529.31;4998230;28;20295;-35
2023/06/01 03:56:47;;;;;;;5.43;3.50;;;;;;;21.46;46.72;102532.72;4996706;28;20046;-35
2023/06/01 03:59:14;;;;;;;5.28;3.00;;;;;;;21.49;46.54;102526.19;4996025;28;20390;-35
2023/06/01 04:01:42;;;;;;;5.22;3.42;;;;;;;21.50;46.44;102519.81;4999765;28;20505;-35
2023/06/01 04:04:09;;;;;;;6.43;3.78;;;;;;;21.52;46.33;102529.47;5005290;28;20493;-35
2023/06/01 04:06:36;;;;;;;5.35;3.25;;;;;;;21.53;46.66;102528.50;5001060;28;21360;-35
2023/06/01 04:09:09;;;;;;;6.07;3.38;;;;;;;21.54;46.33;102529.34;5001180;28;20060;-34
2023/06/01 04:11:35;;;;;;;6.57;3.15;;;;;;;21.54;46.53;102524.78;5000261;28;20052;-35
2023/06/01 04:14:02;;;;;;;4.63;3.20;;;;;;;21.56;46.12;102520.13;4998319;28;20330;-35
2023/06/01 04:16:29;;;;;;;5.35;3.55;;;;;;;21.57;46.28;102521.81;5000550;28;20049;-34
2023/06/01 04:18:55;;;;;;;5.32;3.58;;;;;;;21.58;46.20;102525.38;5002457;28;20042;-34
2023/06/01 04:21:23;;;;;;;5.00;3.25;;;;;;;21.57;46.50;102523.69;5000896;28;20513;-35
2023/06/01 04:23:50;;;;;;;4.25;2.80;;;;;;;21.57;46.34;102523.69;5003846;28;20394;-34
2023/06/01 04:26:18;;;;;;;5.93;3.30;;;;;;;21.58;46.31;102526.22;4998209;28;20181;-35
2023/06/01 04:28:45;;;;;;;4.65;3.15;;;;;;;21.60;45.97;102523.41;5000953;28;20046;-34
2023/06/01 04:31:19;;;;;;;5.38;3.50;;;;;;;21.61;46.38;102525.97;5002951;28;20050;-35
2023/06/01 04:33:52;;;;;;;7.45;3.28;;;;;;;21.62;46.10;102522.25;5001250;28;20532;-37
2023/06/01 04:36:25;;;;;;;6.80;3.17;;;;;;;21.63;46.17;102521.31;5005370;28;20042;-35
2023/06/01 04:38:54;;;;;;;5.28;3.20;;;;;;;21.64;46.00;102522.16;4999007;28;20042;-36
2023/06/01 04:41:21;;;;;;;7.13;3.78;;;;;;;21.66;46.28;102520.16;5001310;28;20448;-35
2023/06/01 04:43:52;;;;;;;4.88;3.17;;;;;;;21.67;45.86;102527.28;5003227;28;20461;-35
2023/06/01 04:46:23;;;;;;;4.90;3.25;;;;;;;21.67;46.11;102521.88;5001205;28;20050;-36
2023/06/01 04:48:53;;;;;;;5.55;3.38;;;;;;;21.66;46.06;102522.84;5001692;28;20116;-37
2023/06/01 04:51:20;;;;;;;5.78;3.40;;;;;;;21.66;46.26;102529.09;5005529;28;20096;-35
2023/06/01 04:53:51;;;;;;;6.05;3.88;;;;;;;21.66;45.97;102526.41;5002975;28;20053;-35
2023/06/01 04:56:19;;;;;;;6.80;3.63;;;;;;;21.66;45.93;102534.50;5006094;28;20045;-35
2023/06/01 04:58:47;;;;;;;6.80;3.92;;;;;;;21.67;46.08;102538.94;5002903;28;20129;-35
2023/06/01 05:01:15;;;;;;;5.43;3.63;;;;;;;21.68;45.90;102537.06;5001118;28;20057;-36
2023/06/01 05:03:43;;;;;;;4.55;3.33;;;;;;;21.68;45.85;102537.94;5002012;28;20113;-35
2023/06/01 05:06:11;;;;;;;5.93;3.55;;;;;;;21.68;46.13;102532.53;5002791;28;20057;-35
2023/06/01 05:08:42;;;;;;;5.95;3.85;;;;;;;21.68;45.92;102528.97;5001875;28;20081;-35
2023/06/01 05:11:09;;;;;;;5.88;3.70;;;;;;;21.68;46.04;102527.13;5002249;28;20088;-34
2023/06/01 05:13:40;;;;;;;5.72;3.70;;;;;;;21.69;45.47;102533.38;5001206;28;20403;-34
2023/06/01 05:16:08;;;;;;;5.20;3.42;;;;;;;21.70;45.73;102526.97;5005068;28;20302;-34
2023/06/01 05:18:35;;;;;;;6.20;3.58;;;;;;;21.69;45.95;102527.97;5002510;28;20404;-34
2023/06/01 05:21:02;;;;;;;6.35;3.78;;;;;;;21.70;45.87;102532.38;5003807;28;20058;-35
2023/06/01 05:23:29;;;;;;;6.13;4.10;;;;;;;21.70;45.87;102535.06;5001571;28;20410;-35
2023/06/01 05:26:02;;;;;;;6.35;3.67;;;;;;;21.70;45.69;102532.38;5005128;28;20132;-34
2023/06/01 05:28:30;;;;;;;5.90;3.72;;;;;;;21.72;45.73;102532.25;4998536;28;20116;-35
2023/06/01 05:31:00;;;;;;;5.38;3.60;;;;;;;21.71;45.90;102531.41;5008672;28;20465;-35
2023/06/01 05:33:27;;;;;;;7.20;3.90;;;;;;;21.73;45.74;102533.97;5002972;28;20121;-35
2023/06/01 05:35:54;;;;;;;6.10;4.28;;;;;;;21.73;45.75;102533.97;5004531;28;20054;-35
2023/06/01 05:38:21;;;;;;;5.93;3.90;;;;;;;21.73;45.85;102539.34;5003138;28;20393;-35
2023/06/01 05:40:47;;;;;;;6.85;4.10;;;;;;;21.73;45.53;102545.59;5004660;28;20057;-36
2023/06/01 05:43:15;;;;;;;7.15;3.92;;;;;;;21.74;45.69;102541.06;5007911;28;20046;-36
2023/06/01 05:45:42;;;;;;;5.93;3.88;;;;;;;21.73;45.93;102540.22;4999475;28;20388;-35
2023/06/01 05:48:09;;;;;;;7.18;4.18;;;;;;;21.75;45.53;102542.75;5000965;28;20518;-35
2023/06/01 05:50:35;;;;;;;6.88;4.32;;;;;;;21.75;45.75;102529.25;5000109;28;20061;-35
2023/06/01 05:53:02;;;;;;;5.97;3.90;;;;;;;21.75;45.53;102537.34;4997145;28;20050;-34
2023/06/01 05:55:29;;;;;;;7.18;4.20;;;;;;;21.74;45.45;102533.81;5002226;28;20613;-36
2023/06/01 05:57:55;;;;;;;7.03;4.38;;;;;;;21.75;45.71;102542.75;4998206;28;20826;-35
2023/06/01 06:00:22;;;;;;;5.78;3.78;;;;;;;21.75;45.60;102534.66;5000266;28;20046;-35
2023/06/01 06:02:49;;;;;;;7.35;4.22;;;;;;;21.76;45.66;102544.50;4998811;28;20050;-35
2023/06/01 06:05:16;;;;;;;6.90;4.40;;;;;;;21.75;45.64;102542.75;5000129;28;20042;-34
2023/06/01 06:07:42;;;;;;;6.97;4.25;;;;;;;21.74;45.68;102533.81;5000834;28;20058;-35
2023/06/01 06:10:09;;;;;;;6.07;4.03;;;;;;;21.73;45.82;102536.66;4999234;28;20111;-35
2023/06/01 06:12:36;;;;;;;6.30;4.15;;;;;;;21.71;45.79;102531.41;5000773;28;20334;-35
2023/06/01 06:15:04;;;;;;;5.63;3.65;;;;;;;21.69;45.53;102533.38;5001322;28;20061;-35
2023/06/01 06:17:30;;;;;;;5.68;4.18;;;;;;;21.66;45.83;102539.03;4998932;28;20429;-34
2023/06/01 06:19:57;;;;;;;6.75;4.40;;;;;;;21.63;45.48;102533.94;4996496;28;20430;-34
2023/06/01 06:22:24;;;;;;;6.03;4.13;;;;;;;21.62;45.66;102535.75;4999579;28;20101;-34
2023/06/01 06:24:50;;;;;;;8.13;4.70;;;;;;;21.60;45.59;102536.91;5007663;28;20068;-35
2023/06/01 06:27:17;;;;;;;6.70;4.40;;;;;;;21.59;45.91;102533.34;4997493;28;20482;-35
2023/06/01 06:29:43;;;;;;;7.60;4.70;;;;;;;21.57;45.62;102540.72;5001153;28;20069;-35
2023/06/01 06:32:10;;;;;;;6.82;4.70;;;;;;;21.54;45.76;102534.72;5000733;28;20311;-34
2023/06/01 06:34:37;;;;;;;9.32;4.50;;;;;;;21.53;46.10;102535.72;5001546;28;20423;-34
2023/06/01 06:37:06;;;;;;;7.78;4.78;;;;;;;21.49;46.08;102532.44;5001500;28;20472;-36
2023/06/01 06:39:33;;;;;;;7.93;4.53;;;;;;;21.46;45.79;102535.41;5001328;28;20046;-35
2023/06/01 06:42:03;;;;;;;8.00;4.38;;;;;;;21.44;45.77;102540.09;4997701;28;20081;-35
2023/06/01 06:44:30;;;;;;;10.77;4.85;;;;;;;21.42;46.24;102547.47;4997088;28;20058;-36
2023/06/01 06:46:58;;;;;;;8.80;4.60;;;;;;;21.41;46.11;102541.22;4999725;28;20454;-35
2023/06/01 06:49:28;;;;;;;7.53;4.43;;;;;;;21.39;46.20;102548.59;4999197;28;20050;-35
2023/06/01 06:51:55;;;;;;;6.82;4.20;;;;;;;21.38;46.33;102552.25;5001445;28;20093;-34
2023/06/01 06:54:22;;;;;;;7.03;4.70;;;;;;;21.39;46.18;102550.44;4999215;28;20386;-35
2023/06/01 06:56:49;;;;;;;7.32;4.40;;;;;;;21.38;46.20;102551.41;5003362;28;20156;-35
2023/06/01 06:59:16;;;;;;;8.65;4.93;;;;;;;21.38;46.24;102546.00;5028981;28;20413;-35
2023/06/01 07:01:43;;;;;;;7.40;4.63;;;;;;;21.38;46.07;102562.19;5000804;28;20714;-35
2023/06/01 07:04:10;;;;;;;7.93;5.10;;;;;;;21.37;46.02;102547.88;5002951;28;20060;-35
2023/06/01 07:06:37;;;;;;;8.88;5.20;;;;;;;21.37;46.11;102560.50;5008923;28;20450;-35
2023/06/01 07:09:05;;;;;;;13.68;5.55;;;;;;;21.36;46.19;102556.94;5003639;28;20034;-35
2023/06/01 07:11:32;;;;;;;7.05;4.55;;;;;;;21.36;46.25;102556.94;5002610;28;20104;-35
2023/06/01 07:13:59;;;;;;;10.45;4.97;;;;;;;21.37;46.19;102555.09;5007676;28;20046;-35
2023/06/01 07:16:26;;;;;;;8.63;4.50;;;;;;;21.39;46.14;102555.84;5002952;28;20054;-35
2023/06/01 07:18:53;;;;;;;8.10;4.72;;;;;;;21.39;46.21;102550.44;5000516;28;20112;-35
2023/06/01 07:21:20;;;;;;;9.05;4.85;;;;;;;21.40;46.12;102560.25;5029867;28;20105;-35
2023/06/01 07:23:46;;;;;;;7.72;4.72;;;;;;;21.41;46.02;102546.59;4998774;28;20058;-35
2023/06/01 07:26:13;;;;;;;10.15;4.70;;;;;;;21.43;46.12;102554.59;5002045;28;20096;-36
2023/06/01 07:28:42;;;;;;;8.57;4.65;;;;;;;21.43;45.89;102547.34;5000691;28;20324;-35
2023/06/01 07:31:09;;;;;;;9.18;5.32;;;;;;;21.46;45.87;102553.44;5002905;28;20104;-35
2023/06/01 07:33:36;;;;;;;10.18;5.03;;;;;;;21.48;45.77;102548.78;4999619;28;20050;-36
2023/06/01 07:36:04;;;;;;;12.73;5.13;;;;;;;21.50;45.73;102552.19;5002332;28;20046;-35
2023/06/01 07:38:31;;;;;;;9.02;5.25;;;;;;;21.51;45.78;102557.47;4996701;28;22703;-35
2023/06/01 07:40:57;;;;;;;10.07;4.93;;;;;;;21.53;45.57;102565.41;5000795;28;20092;-35
2023/06/01 07:43:24;;;;;;;8.93;4.65;;;;;;;21.54;46.06;102556.31;4996149;28;20108;-35
2023/06/01 07:45:51;;;;;;;9.88;5.72;;;;;;;21.56;45.96;102557.06;4999006;28;20058;-35
2023/06/01 07:48:17;;;;;;;9.48;5.15;;;;;;;21.57;45.92;102566.84;4996363;28;20050;-35
2023/06/01 07:50:44;;;;;;;8.32;5.28;;;;;;;21.57;45.96;102565.00;5005368;28;20046;-34
2023/06/01 07:53:12;;;;;;;9.80;5.07;;;;;;;21.59;45.67;102565.72;5004298;28;20050;-35
2023/06/01 07:55:38;;;;;;;8.98;5.25;;;;;;;21.60;45.90;102566.59;5003832;28;20100;-35
2023/06/01 07:58:05;;;;;;;8.68;4.57;;;;;;;21.61;45.51;102561.03;5002620;28;20133;-35
2023/06/01 08:00:32;;;;;;;12.20;5.07;;;;;;;21.63;45.80;102560.94;5001748;28;20140;-34
2023/06/01 08:02:59;;;;;;;8.23;4.45;;;;;;;21.64;45.81;102554.53;4999922;28;20493;-36
2023/06/01 08:05:26;;;;;;;8.35;5.20;;;;;;;21.66;45.67;102558.78;5002051;28;20054;-35
2023/06/01 08:07:52;;;;;;;8.07;5.00;;;;;;;21.68;45.65;102553.28;4999418;28;20054;-35
2023/06/01 08:10:19;;;;;;;10.43;4.68;;;;;;;21.69;45.38;102545.03;5003858;28;20073;-35
2023/06/01 08:12:47;;;;;;;10.90;5.75;;;;;;;21.72;45.75;102546.59;5006820;28;20054;-35
2023/06/01 08:15:15;;;;;;;7.68;4.65;;;;;;;21.74;45.62;102539.22;5001978;28;20144;-35
2023/06/01 08:17:43;;;;;;;7.93;4.63;;;;;;;21.77;45.44;102546.19;5002744;28;20133;-35
2023/06/01 08:20:10;;;;;;;9.07;5.15;;;;;;;21.78;45.41;102542.50;4999178;28;20375;-35
2023/06/01 08:22:37;;;;;;;7.85;4.63;;;;;;;21.80;45.14;102546.78;4999449;28;20136;-35
2023/06/01 08:25:05;;;;;;;7.80;5.07;;;;;;;21.82;45.33;102543.94;5003851;28;20057;-38
2023/06/01 08:27:32;;;;;;;8.52;5.00;;;;;;;21.84;45.23;102536.56;5005829;28;20465;-33
2023/06/01 08:29:58;;;;;;;10.23;4.95;;;;;;;21.86;45.42;102529.16;5001326;28;20050;-34
2023/06/01 08:32:25;;;;;;;10.18;5.13;;;;;;;21.88;45.43;102538.00;5004141;28;20042;-34
2023/06/01 08:34:52;;;;;;;7.00;4.50;;;;;;;21.89;45.29;102529.75;5001938;28;20147;-34
2023/06/01 08:37:18;;;;;;;8.63;5.00;;;;;;;21.90;45.24;102526.03;5000857;28;20053;-34
2023/06/01 08:39:46;;;;;;;8.65;4.80;;;;;;;21.93;45.17;102533.03;5004672;28;20150;-34
2023/06/01 08:42:25;;;;;;;7.35;4.80;;;;;;;21.93;44.89;102535.72;5008707;28;20054;-34
2023/06/01 08:44:58;;;;;;;8.10;4.95;;;;;;;21.95;45.07;102536.44;5006387;28;20055;-34
2023/06/01 08:47:26;;;;;;;7.53;4.57;;;;;;;21.98;45.08;102538.00;5005987;28;20050;-34
2023/06/01 08:49:53;;;;;;;7.90;4.50;;;;;;;21.98;44.94;102533.44;5008201;28;20100;-34
2023/06/01 08:52:24;;;;;;;10.32;6.07;;;;;;;22.01;45.28;102526.94;5008130;28;20104;-34
2023/06/01 08:54:52;;;;;;;9.75;5.65;;;;;;;22.01;45.15;102538.59;5008017;28;20092;-34
2023/06/01 08:57:20;;;;;;;9.55;5.22;;;;;;;22.03;44.92;102538.44;5007511;28;20100;-35
2023/06/01 08:59:47;;;;;;;7.55;4.70;;;;;;;22.03;44.73;102539.31;5004428;28;20045;-33
2023/06/01 09:02:14;;;;;;;8.48;4.80;;;;;;;22.03;44.66;102533.91;5007396;28;20050;-34
2023/06/01 09:04:44;;;;;;;8.63;5.25;;;;;;;22.05;44.93;102536.47;5004825;28;20129;-34
2023/06/01 09:07:12;;;;;;;7.63;4.38;;;;;;;22.06;44.93;102535.47;5001038;28;20050;-34
2023/06/01 09:09:39;;;;;;;6.82;4.45;;;;;;;22.06;44.38;102539.00;5001913;28;20081;-34
2023/06/01 09:12:24;;;;;;;8.85;4.65;;;;;;;22.05;44.90;102534.63;5003276;28;20058;-34
2023/06/01 09:15:11;;;;;;;8.40;4.65;;;;;;;22.07;44.99;102534.47;5000268;28;20141;-34
2023/06/01 09:17:43;;;;;;;7.22;4.63;;;;;;;22.08;44.87;102530.78;5003834;28;20230;-34
2023/06/01 09:20:14;;;;;;;8.68;4.68;;;;;;;22.09;44.97;102524.38;5004508;28;20069;-35
2023/06/01 09:22:45;;;;;;;8.93;5.35;;;;;;;22.09;44.75;102524.38;4997905;28;20056;-34
2023/06/01 09:25:13;;;;;;;7.90;4.45;;;;;;;22.09;44.78;102533.34;5003368;28;20297;-35
2023/06/01 09:27:51;;;;;;;11.05;4.65;;;;;;;22.10;45.06;102526.94;5003573;28;20100;-35
2023/06/01 09:30:23;;;;;;;7.97;4.30;;;;;;;22.11;44.81;102523.28;4998644;28;20046;-34
2023/06/01 09:32:52;;;;;;;8.10;4.40;;;;;;;22.13;44.86;102521.31;5003188;28;20077;-34
2023/06/01 09:35:45;;;;;;;7.57;4.20;;;;;;;22.13;44.86;102509.66;4999165;28;20054;-34
2023/06/01 09:38:21;;;;;;;6.90;4.30;;;;;;;22.15;44.76;102502.25;4999173;28;20053;-34
2023/06/01 09:41:03;;;;;;;6.60;4.57;;;;;;;22.17;44.68;102511.06;5003159;28;20088;-34
2023/06/01 09:43:36;;;;;;;7.78;4.75;;;;;;;22.21;44.83;102504.41;5001239;28;20129;-34
2023/06/01 09:46:03;;;;;;;10.18;4.80;;;;;;;22.22;44.75;102503.38;5002554;28;20058;-34
2023/06/01 09:48:30;;;;;;;8.98;4.20;;;;;;;22.25;44.94;102502.25;5002827;28;20115;-35
2023/06/01 09:50:57;;;;;;;11.48;5.03;;;;;;;22.26;44.93;102517.47;4999113;28;20077;-35
2023/06/01 09:53:27;;;;;;;9.48;4.75;;;;;;;22.27;44.99;102508.38;5000593;28;20063;-34
2023/06/01 09:56:00;;;;;;;8.90;5.13;;;;;;;22.28;45.22;102505.53;5003607;28;20046;-34
2023/06/01 09:58:27;;;;;;;8.35;5.10;;;;;;;22.30;45.27;102505.38;5000703;28;20050;-34
2023/06/01 10:00:58;;;;;;;10.73;5.90;;;;;;;22.31;45.12;102507.09;5002864;28;20116;-34
2023/06/01 10:03:25;;;;;;;9.40;5.13;;;;;;;22.33;44.91;102507.81;5002950;28;20081;-35
2023/06/01 10:05:53;;;;;;;10.88;5.85;;;;;;;22.35;45.28;102500.41;5000855;28;20065;-35
2023/06/01 10:08:20;;;;;;;11.65;6.35;;;;;;;22.38;45.51;102505.53;4998803;28;20623;-34
2023/06/01 10:10:48;;;;;;;11.98;6.55;;;;;;;22.39;45.49;102504.53;5003025;28;20082;-34
2023/06/01 10:13:15;;;;;;;15.32;7.55;;;;;;;22.40;45.53;102515.22;4999235;28;20686;-35
2023/06/01 10:15:42;;;;;;;15.20;7.88;;;;;;;22.44;45.31;102514.94;5000710;28;20058;-35
2023/06/01 10:18:09;;;;;;;14.40;8.02;;;;;;;22.44;45.53;102506.84;5003011;28;20068;-34
2023/06/01 10:20:37;;;;;;;13.68;7.10;;;;;;;22.45;45.63;102520.19;5000172;28;20062;-34
2023/06/01 10:23:05;;;;;;;15.55;7.70;;;;;;;22.47;45.20;102510.06;4998578;28;20124;-34
2023/06/01 10:25:45;;;;;;;13.43;7.50;;;;;;;22.49;45.66;102510.81;4998687;28;20061;-34
2023/06/01 10:28:13;;;;;;;14.82;7.57;;;;;;;22.51;45.81;102516.91;5002143;28;20401;-35
2023/06/01 10:30:40;;;;;;;16.55;8.98;;;;;;;22.54;45.37;102507.66;5033963;28;20385;-35
2023/06/01 10:33:07;;;;;;;17.05;7.50;;;;;;;22.56;45.70;102513.78;4997875;28;20054;-35
2023/06/01 10:35:42;;;;;;;14.73;7.35;;;;;;;22.59;45.98;102517.06;5000886;28;20141;-35
2023/06/01 10:38:09;;;;;;;17.00;8.27;;;;;;;22.63;45.86;102509.50;5002306;28;20047;-35
2023/06/01 10:40:37;;;;;;;18.10;9.13;;;;;;;22.66;46.06;102506.50;4998862;28;20080;-35
2023/06/01 10:43:04;;;;;;;20.33;8.95;;;;;;;22.68;46.26;102512.66;5001818;28;20056;-36
2023/06/01 10:45:33;;;;;;;17.75;8.38;;;;;;;22.70;45.99;102512.50;4999513;28;20049;-35
2023/06/01 10:48:01;;;;;;;16.90;8.90;;;;;;;22.74;46.04;102505.78;5000576;28;20046;-35
2023/06/01 10:50:28;;;;;;;17.63;8.10;;;;;;;22.76;46.50;102506.53;5008637;28;20045;-35
2023/06/01 10:52:55;;;;;;;19.50;9.25;;;;;;;22.77;46.43;102510.94;4998692;28;20061;-35
2023/06/01 10:55:26;;;;;;;15.73;8.95;;;;;;;22.80;46.43;102502.53;4999366;28;20501;-34
2023/06/01 10:58:23;;;;;;;16.15;8.45;;;;;;;22.80;46.11;102497.97;5000270;28;20054;-34
2023/06/01 11:00:55;;;;;;;17.17;8.38;;;;;;;22.85;46.25;102495.69;5002551;28;20049;-35
2023/06/01 11:03:45;;;;;;;13.52;8.13;;;;;;;22.87;46.18;102500.94;4999673;28;20129;-35
2023/06/01 11:06:26;;;;;;;17.08;8.60;;;;;;;22.90;46.23;102487.13;5001207;28;20481;-35
2023/06/01 11:08:58;;;;;;;15.80;8.25;;;;;;;22.91;46.11;102488.84;4997978;28;20050;-34
2023/06/01 11:11:48;;;;;;;14.00;7.93;;;;;;;22.93;46.41;102494.97;4994742;28;20105;-35
2023/06/01 11:14:16;;;;;;;12.10;7.15;;;;;;;22.98;46.28;102494.53;5005336;28;20488;-34
2023/06/01 11:16:42;;;;;;;13.75;7.80;;;;;;;22.98;46.01;102492.69;5003481;28;20062;-35
2023/06/01 11:19:10;;;;;;;15.45;7.57;;;;;;;23.01;45.90;102495.09;5003805;28;20123;-34
2023/06/01 11:21:43;;;;;;;15.35;7.35;;;;;;;23.04;46.12;102497.53;5002099;28;20046;-34
2023/06/01 11:24:11;;;;;;;15.07;7.53;;;;;;;23.07;45.83;102482.84;5003264;28;20054;-35
2023/06/01 11:26:45;;;;;;;12.27;7.10;;;;;;;23.09;45.98;102483.56;5008131;28;20054;-35
2023/06/01 11:29:23;;;;;;;11.50;6.68;;;;;;;23.10;46.46;102480.69;5005672;28;20057;-35
2023/06/01 11:31:53;;;;;;;14.07;6.82;;;;;;;23.13;45.93;102482.25;5011180;28;20471;-35